sensor_id;sensor_type;location;lat;lon;timestamp;pressure;altitude;pressure_sealevel;temperature;humidity
7333;BME280;3707;43.618;25.342;2023-02-28T00:01:05;100925.03;;;6.92;100.00
7333;BME280;3707;43.618;25.342;2023-02-28T00:03:33;100910.28;;;6.89;100.00
7333;BME280;3707;43.618;25.342;2023-02-28T00:06:01;100910.50;;;6.75;100.00
7333;BME280;3707;43.618;25.342;2023-02-28T00:08:28;100933.91;;;6.79;100.00
7333;BME280;3707;43.618;25.342;2023-02-28T00:10:55;100950.50;;;6.86;100.00
7333;BME280;3707;43.618;25.342;2023-02-28T00:13:22;100954.66;;;6.82;100.00
7333;BME280;3707;43.618;25.342;2023-02-28T00:15:59;100954.44;;;6.97;100.00
7333;BME280;3707;43.618;25.342;2023-02-28T00:18:26;100954.44;;;6.78;100.00
7333;BME280;3707;43.618;25.342;2023-02-28T00:20:54;100944.69;;;6.71;100.00
7333;BME280;3707;43.618;25.342;2023-02-28T00:23:21;100956.88;;;6.75;100.00
7333;BME280;3707;43.618;25.342;2023-02-28T00:25:48;100951.09;;;6.60;100.00
7333;BME280;3707;43.618;25.342;2023-02-28T00:28:15;100959.88;;;6.65;100.00
7333;BME280;3707;43.618;25.342;2023-02-28T00:30:42;100947.84;;;6.46;100.00
7333;BME280;3707;43.618;25.342;2023-02-28T00:33:09;100968.94;;;6.57;100.00
7333;BME280;3707;43.618;25.342;2023-02-28T00:35:35;100978.44;;;6.58;100.00
7333;BME280;3707;43.618;25.342;2023-02-28T00:38:04;100941.28;;;6.33;100.00
7333;BME280;3707;43.618;25.342;2023-02-28T00:40:31;100948.03;;;6.31;100.00
7333;BME280;3707;43.618;25.342;2023-02-28T00:42:58;100963.78;;;6.37;100.00
7333;BME280;3707;43.618;25.342;2023-02-28T00:45:25;100943.25;;;6.20;100.00
7333;BME280;3707;43.618;25.342;2023-02-28T00:47:52;100965.84;;;6.44;100.00
7333;BME280;3707;43.618;25.342;2023-02-28T00:50:19;100974.22;;;6.40;100.00
7333;BME280;3707;43.618;25.342;2023-02-28T00:52:46;100976.81;;;6.40;100.00
7333;BME280;3707;43.618;25.342;2023-02-28T00:55:15;100986.31;;;6.41;100.00
7333;BME280;3707;43.618;25.342;2023-02-28T00:57:41;100999.53;;;6.31;100.00
7333;BME280;3707;43.618;25.342;2023-02-28T01:00:09;100997.03;;;6.51;100.00
7333;BME280;3707;43.618;25.342;2023-02-28T01:02:36;100994.09;;;6.43;100.00
7333;BME280;3707;43.618;25.342;2023-02-28T01:05:03;100997.03;;;6.51;100.00
7333;BME280;3707;43.618;25.342;2023-02-28T01:07:30;101011.53;;;6.48;100.00
7333;BME280;3707;43.618;25.342;2023-02-28T01:09:57;101008.63;;;6.60;100.00
7333;BME280;3707;43.618;25.342;2023-02-28T01:12:25;100980.63;;;6.48;100.00
7333;BME280;3707;43.618;25.342;2023-02-28T01:14:52;101023.59;;;6.49;100.00
7333;BME280;3707;43.618;25.342;2023-02-28T01:17:19;101005.22;;;6.42;100.00
7333;BME280;3707;43.618;25.342;2023-02-28T01:19:46;101001.81;;;6.43;100.00
7333;BME280;3707;43.618;25.342;2023-02-28T01:22:12;100979.44;;;6.05;100.00
7333;BME280;3707;43.618;25.342;2023-02-28T01:24:39;100927.34;;;5.75;100.00
7333;BME280;3707;43.618;25.342;2023-02-28T01:27:06;101020.63;;;6.23;100.00
7333;BME280;3707;43.618;25.342;2023-02-28T01:29:34;100995.53;;;6.19;100.00
7333;BME280;3707;43.618;25.342;2023-02-28T01:32:01;101010.19;;;6.02;100.00
7333;BME280;3707;43.618;25.342;2023-02-28T01:34:27;101017.09;;;6.03;100.00
7333;BME280;3707;43.618;25.342;2023-02-28T01:36:54;101002.84;;;5.92;100.00
7333;BME280;3707;43.618;25.342;2023-02-28T01:39:24;100967.63;;;5.75;100.00
7333;BME280;3707;43.618;25.342;2023-02-28T01:41:50;100999.06;;;6.03;100.00
7333;BME280;3707;43.618;25.342;2023-02-28T01:44:57;101009.53;;;6.06;100.00
7333;BME280;3707;43.618;25.342;2023-02-28T01:47:26;101002.66;;;5.89;100.00
7333;BME280;3707;43.618;25.342;2023-02-28T01:49:54;100994.84;;;5.70;100.00
7333;BME280;3707;43.618;25.342;2023-02-28T01:52:21;101010.16;;;5.84;100.00
7333;BME280;3707;43.618;25.342;2023-02-28T01:54:52;101005.28;;;5.73;100.00
7333;BME280;3707;43.618;25.342;2023-02-28T01:57:24;101021.00;;;5.79;100.00
7333;BME280;3707;43.618;25.342;2023-02-28T01:59:56;101012.34;;;5.77;100.00
7333;BME280;3707;43.618;25.342;2023-02-28T02:02:25;100994.72;;;5.67;100.00
7333;BME280;3707;43.618;25.342;2023-02-28T02:04:58;100989.72;;;5.70;100.00
7333;BME280;3707;43.618;25.342;2023-02-28T02:07:29;101023.72;;;5.82;100.00
7333;BME280;3707;43.618;25.342;2023-02-28T02:10:02;101024.88;;;5.87;100.00
7333;BME280;3707;43.618;25.342;2023-02-28T02:12:40;101025.88;;;5.73;100.00
7333;BME280;3707;43.618;25.342;2023-02-28T02:15:16;101019.09;;;5.75;100.00
7333;BME280;3707;43.618;25.342;2023-02-28T02:17:52;101021.47;;;5.70;100.00
7333;BME280;3707;43.618;25.342;2023-02-28T02:30:08;101042.16;;;5.56;100.00
7333;BME280;3707;43.618;25.342;2023-02-28T02:33:06;101037.78;;;5.37;100.00
7333;BME280;3707;43.618;25.342;2023-02-28T02:35:56;101057.69;;;5.41;100.00
7333;BME280;3707;43.618;25.342;2023-02-28T02:38:31;101060.38;;;5.26;100.00
7333;BME280;3707;43.618;25.342;2023-02-28T02:41:05;101050.72;;;5.22;100.00
7333;BME280;3707;43.618;25.342;2023-02-28T02:43:37;101047.91;;;5.34;100.00
7333;BME280;3707;43.618;25.342;2023-02-28T02:46:10;101031.94;;;5.23;100.00
7333;BME280;3707;43.618;25.342;2023-02-28T02:48:40;101054.91;;;5.20;100.00
7333;BME280;3707;43.618;25.342;2023-02-28T02:51:13;101060.53;;;5.13;100.00
7333;BME280;3707;43.618;25.342;2023-02-28T02:53:45;101056.13;;;5.27;100.00
7333;BME280;3707;43.618;25.342;2023-02-28T02:56:15;101033.38;;;5.18;100.00
7333;BME280;3707;43.618;25.342;2023-02-28T02:58:44;101051.22;;;5.31;100.00
7333;BME280;3707;43.618;25.342;2023-02-28T03:01:17;101043.50;;;5.31;100.00
7333;BME280;3707;43.618;25.342;2023-02-28T03:03:54;101050.16;;;5.12;100.00
7333;BME280;3707;43.618;25.342;2023-02-28T03:06:22;101057.41;;;5.19;100.00
7333;BME280;3707;43.618;25.342;2023-02-28T03:08:49;101067.63;;;5.17;100.00
7333;BME280;3707;43.618;25.342;2023-02-28T03:11:16;101065.75;;;5.15;100.00
7333;BME280;3707;43.618;25.342;2023-02-28T03:16:42;101071.78;;;5.15;100.00
7333;BME280;3707;43.618;25.342;2023-02-28T03:19:31;101075.78;;;5.10;100.00
7333;BME280;3707;43.618;25.342;2023-02-28T03:22:14;101069.06;;;5.12;100.00
7333;BME280;3707;43.618;25.342;2023-02-28T03:24:52;101062.28;;;5.14;100.00
7333;BME280;3707;43.618;25.342;2023-02-28T03:27:24;101049.31;;;4.95;100.00
7333;BME280;3707;43.618;25.342;2023-02-28T03:29:59;101058.78;;;5.12;100.00
7333;BME280;3707;43.618;25.342;2023-02-28T03:32:33;101057.78;;;5.10;100.00
7333;BME280;3707;43.618;25.342;2023-02-28T03:35:06;101052.00;;;5.14;100.00
7333;BME280;3707;43.618;25.342;2023-02-28T03:37:38;101058.59;;;4.93;100.00
7333;BME280;3707;43.618;25.342;2023-02-28T03:40:09;101017.34;;;4.74;100.00
7333;BME280;3707;43.618;25.342;2023-02-28T03:42:39;101059.00;;;5.00;100.00
7333;BME280;3707;43.618;25.342;2023-02-28T03:45:11;101066.16;;;4.90;100.00
7333;BME280;3707;43.618;25.342;2023-02-28T03:47:41;101068.97;;;4.94;100.00
7333;BME280;3707;43.618;25.342;2023-02-28T03:50:14;101063.59;;;5.06;100.00
7333;BME280;3707;43.618;25.342;2023-02-28T03:52:49;101068.81;;;4.91;100.00
7333;BME280;3707;43.618;25.342;2023-02-28T03:55:17;101072.91;;;4.88;100.00
7333;BME280;3707;43.618;25.342;2023-02-28T03:57:52;101065.84;;;4.84;100.00
7333;BME280;3707;43.618;25.342;2023-02-28T04:00:26;101051.16;;;4.81;100.00
7333;BME280;3707;43.618;25.342;2023-02-28T04:02:55;101037.38;;;4.65;100.00
7333;BME280;3707;43.618;25.342;2023-02-28T04:05:22;101043.16;;;4.61;100.00
7333;BME280;3707;43.618;25.342;2023-02-28T04:07:50;101054.88;;;4.72;100.00
7333;BME280;3707;43.618;25.342;2023-02-28T04:10:18;101048.06;;;4.56;100.00
7333;BME280;3707;43.618;25.342;2023-02-28T04:12:45;101062.53;;;4.70;100.00
7333;BME280;3707;43.618;25.342;2023-02-28T04:15:12;101045.50;;;4.56;100.00
7333;BME280;3707;43.618;25.342;2023-02-28T04:17:38;101056.66;;;4.73;100.00
7333;BME280;3707;43.618;25.342;2023-02-28T04:20:06;101054.19;;;4.74;100.00
7333;BME280;3707;43.618;25.342;2023-02-28T04:22:35;101022.44;;;4.41;100.00
7333;BME280;3707;43.618;25.342;2023-02-28T04:25:05;101044.84;;;4.60;100.00
7333;BME280;3707;43.618;25.342;2023-02-28T04:27:32;101041.81;;;4.67;100.00
7333;BME280;3707;43.618;25.342;2023-02-28T04:29:59;101033.50;;;4.57;100.00
7333;BME280;3707;43.618;25.342;2023-02-28T04:32:26;101016.88;;;4.50;100.00
7333;BME280;3707;43.618;25.342;2023-02-28T04:34:52;101034.50;;;4.59;100.00
7333;BME280;3707;43.618;25.342;2023-02-28T04:37:19;101046.34;;;4.57;100.00
7333;BME280;3707;43.618;25.342;2023-02-28T04:39:46;101047.16;;;4.56;100.00
7333;BME280;3707;43.618;25.342;2023-02-28T04:42:14;101037.25;;;4.78;100.00
7333;BME280;3707;43.618;25.342;2023-02-28T04:44:41;101030.97;;;4.73;100.00
7333;BME280;3707;43.618;25.342;2023-02-28T04:47:08;100997.13;;;4.33;100.00
7333;BME280;3707;43.618;25.342;2023-02-28T04:49:35;101064.09;;;4.68;100.00
7333;BME280;3707;43.618;25.342;2023-02-28T04:52:02;101061.13;;;4.61;100.00
7333;BME280;3707;43.618;25.342;2023-02-28T04:54:29;101035.50;;;4.46;100.00
7333;BME280;3707;43.618;25.342;2023-02-28T04:56:55;101064.53;;;4.60;100.00
7333;BME280;3707;43.618;25.342;2023-02-28T04:59:24;100974.25;;;4.21;100.00
7333;BME280;3707;43.618;25.342;2023-02-28T05:01:50;101062.91;;;4.62;100.00
7333;BME280;3707;43.618;25.342;2023-02-28T05:04:17;101065.72;;;4.66;100.00
7333;BME280;3707;43.618;25.342;2023-02-28T05:06:44;101061.63;;;4.70;100.00
7333;BME280;3707;43.618;25.342;2023-02-28T05:09:11;101022.06;;;4.35;100.00
7333;BME280;3707;43.618;25.342;2023-02-28T05:11:38;101072.75;;;4.54;100.00
7333;BME280;3707;43.618;25.342;2023-02-28T05:14:09;101070.28;;;4.72;100.00
7333;BME280;3707;43.618;25.342;2023-02-28T05:16:38;101003.34;;;4.22;100.00
7333;BME280;3707;43.618;25.342;2023-02-28T05:19:05;101094.25;;;4.71;100.00
7333;BME280;3707;43.618;25.342;2023-02-28T05:21:33;101103.06;;;4.76;100.00
7333;BME280;3707;43.618;25.342;2023-02-28T05:24:02;101108.75;;;4.70;100.00
7333;BME280;3707;43.618;25.342;2023-02-28T05:26:29;101112.91;;;4.68;100.00
7333;BME280;3707;43.618;25.342;2023-02-28T05:28:57;101106.75;;;5.28;100.00
7333;BME280;3707;43.618;25.342;2023-02-28T05:31:24;101040.69;;;4.31;100.00
7333;BME280;3707;43.618;25.342;2023-02-28T05:33:52;101122.25;;;4.82;100.00
7333;BME280;3707;43.618;25.342;2023-02-28T05:36:19;101128.09;;;4.64;100.00
7333;BME280;3707;43.618;25.342;2023-02-28T05:38:47;101133.03;;;4.61;100.00
7333;BME280;3707;43.618;25.342;2023-02-28T05:41:14;101136.91;;;4.69;100.00
7333;BME280;3707;43.618;25.342;2023-02-28T05:43:41;101147.34;;;4.72;100.00
7333;BME280;3707;43.618;25.342;2023-02-28T05:46:09;101144.09;;;4.74;100.00
7333;BME280;3707;43.618;25.342;2023-02-28T05:48:38;101116.06;;;4.48;100.00
7333;BME280;3707;43.618;25.342;2023-02-28T05:51:08;101149.31;;;4.76;100.00
7333;BME280;3707;43.618;25.342;2023-02-28T05:53:35;101131.47;;;4.63;100.00
7333;BME280;3707;43.618;25.342;2023-02-28T05:56:02;101156.75;;;4.71;100.00
7333;BME280;3707;43.618;25.342;2023-02-28T05:58:29;101155.44;;;4.78;100.00
7333;BME280;3707;43.618;25.342;2023-02-28T06:00:57;101154.91;;;4.69;100.00
7333;BME280;3707;43.618;25.342;2023-02-28T06:03:24;101134.13;;;4.49;100.00
7333;BME280;3707;43.618;25.342;2023-02-28T06:05:51;101157.47;;;4.69;100.00
7333;BME280;3707;43.618;25.342;2023-02-28T06:08:19;101144.00;;;4.73;100.00
7333;BME280;3707;43.618;25.342;2023-02-28T06:10:46;101150.28;;;4.78;100.00
7333;BME280;3707;43.618;25.342;2023-02-28T06:13:13;101144.00;;;4.73;100.00
7333;BME280;3707;43.618;25.342;2023-02-28T06:15:40;101148.84;;;4.83;100.00
7333;BME280;3707;43.618;25.342;2023-02-28T06:18:07;101158.78;;;4.77;100.00
7333;BME280;3707;43.618;25.342;2023-02-28T06:20:34;101154.69;;;4.80;100.00
7333;BME280;3707;43.618;25.342;2023-02-28T06:23:01;101132.06;;;4.89;100.00
7333;BME280;3707;43.618;25.342;2023-02-28T06:25:29;101147.63;;;4.92;100.00
7333;BME280;3707;43.618;25.342;2023-02-28T06:27:56;101128.03;;;4.78;100.00
7333;BME280;3707;43.618;25.342;2023-02-28T06:30:23;101122.56;;;4.72;100.00
7333;BME280;3707;43.618;25.342;2023-02-28T06:32:52;101148.50;;;4.77;100.00
7333;BME280;3707;43.618;25.342;2023-02-28T06:35:19;101130.13;;;4.85;100.00
7333;BME280;3707;43.618;25.342;2023-02-28T06:37:46;101132.00;;;5.04;100.00
7333;BME280;3707;43.618;25.342;2023-02-28T06:40:13;101117.72;;;5.09;100.00
7333;BME280;3707;43.618;25.342;2023-02-28T06:42:42;101133.94;;;4.92;100.00
7333;BME280;3707;43.618;25.342;2023-02-28T06:45:10;101135.56;;;5.06;100.00
7333;BME280;3707;43.618;25.342;2023-02-28T06:47:37;101141.75;;;4.79;100.00
7333;BME280;3707;43.618;25.342;2023-02-28T06:50:06;101143.56;;;4.96;100.00
7333;BME280;3707;43.618;25.342;2023-02-28T06:52:32;101147.09;;;4.98;100.00
7333;BME280;3707;43.618;25.342;2023-02-28T06:55:02;101145.69;;;5.19;100.00
7333;BME280;3707;43.618;25.342;2023-02-28T06:57:29;101140.72;;;5.22;100.00
7333;BME280;3707;43.618;25.342;2023-02-28T06:59:59;101064.22;;;4.70;100.00
7333;BME280;3707;43.618;25.342;2023-02-28T07:02:27;101133.53;;;5.00;100.00
7333;BME280;3707;43.618;25.342;2023-02-28T07:04:54;101133.69;;;5.04;100.00
7333;BME280;3707;43.618;25.342;2023-02-28T07:07:21;101155.97;;;5.19;100.00
7333;BME280;3707;43.618;25.342;2023-02-28T07:09:47;101160.22;;;5.19;100.00
7333;BME280;3707;43.618;25.342;2023-02-28T07:12:14;101164.56;;;5.20;100.00
7333;BME280;3707;43.618;25.342;2023-02-28T07:14:41;101167.03;;;5.18;100.00
7333;BME280;3707;43.618;25.342;2023-02-28T07:17:10;101163.84;;;5.22;100.00
7333;BME280;3707;43.618;25.342;2023-02-28T07:19:37;101163.59;;;5.18;100.00
7333;BME280;3707;43.618;25.342;2023-02-28T07:22:04;101154.50;;;5.08;100.00
7333;BME280;3707;43.618;25.342;2023-02-28T07:24:31;101160.31;;;5.20;100.00
7333;BME280;3707;43.618;25.342;2023-02-28T07:26:58;101169.59;;;5.02;100.00
7333;BME280;3707;43.618;25.342;2023-02-28T07:29:26;101169.28;;;5.12;100.00
7333;BME280;3707;43.618;25.342;2023-02-28T07:31:53;101146.84;;;4.93;100.00
7333;BME280;3707;43.618;25.342;2023-02-28T07:34:21;101160.63;;;5.26;100.00
7333;BME280;3707;43.618;25.342;2023-02-28T07:36:48;101156.91;;;5.05;100.00
7333;BME280;3707;43.618;25.342;2023-02-28T07:39:18;101171.50;;;5.21;100.00
7333;BME280;3707;43.618;25.342;2023-02-28T07:41:45;101154.69;;;5.27;100.00
7333;BME280;3707;43.618;25.342;2023-02-28T07:44:12;101178.38;;;5.22;100.00
7333;BME280;3707;43.618;25.342;2023-02-28T07:46:39;101181.34;;;5.13;100.00
7333;BME280;3707;43.618;25.342;2023-02-28T07:49:06;101181.44;;;5.15;100.00
7333;BME280;3707;43.618;25.342;2023-02-28T07:51:34;101191.88;;;5.18;100.00
7333;BME280;3707;43.618;25.342;2023-02-28T07:54:01;101185.88;;;5.17;100.00
7333;BME280;3707;43.618;25.342;2023-02-28T07:56:27;101190.41;;;5.07;100.00
7333;BME280;3707;43.618;25.342;2023-02-28T07:58:54;101194.59;;;5.05;100.00
7333;BME280;3707;43.618;25.342;2023-02-28T08:01:21;101190.97;;;5.01;100.00
7333;BME280;3707;43.618;25.342;2023-02-28T08:03:48;101192.59;;;5.15;100.00
7333;BME280;3707;43.618;25.342;2023-02-28T08:06:17;101196.41;;;5.38;100.00
7333;BME280;3707;43.618;25.342;2023-02-28T08:08:46;101197.47;;;5.41;100.00
7333;BME280;3707;43.618;25.342;2023-02-28T08:11:13;101202.25;;;5.19;100.00
7333;BME280;3707;43.618;25.342;2023-02-28T08:13:40;101208.53;;;5.24;100.00
7333;BME280;3707;43.618;25.342;2023-02-28T08:16:10;101173.34;;;5.56;100.00
7333;BME280;3707;43.618;25.342;2023-02-28T08:18:37;101200.03;;;5.41;100.00
7333;BME280;3707;43.618;25.342;2023-02-28T08:21:07;101180.94;;;5.22;100.00
7333;BME280;3707;43.618;25.342;2023-02-28T08:23:34;101211.13;;;5.40;100.00
7333;BME280;3707;43.618;25.342;2023-02-28T08:26:02;101202.59;;;5.41;100.00
7333;BME280;3707;43.618;25.342;2023-02-28T08:28:30;101185.41;;;5.24;100.00
7333;BME280;3707;43.618;25.342;2023-02-28T08:30:57;101209.91;;;5.34;100.00
7333;BME280;3707;43.618;25.342;2023-02-28T08:33:24;101204.75;;;5.34;100.00
7333;BME280;3707;43.618;25.342;2023-02-28T08:35:56;101207.75;;;5.41;100.00
7333;BME280;3707;43.618;25.342;2023-02-28T08:38:23;101177.69;;;5.40;100.00
7333;BME280;3707;43.618;25.342;2023-02-28T08:40:57;101202.19;;;5.50;100.00
7333;BME280;3707;43.618;25.342;2023-02-28T08:43:25;101203.31;;;5.39;100.00
7333;BME280;3707;43.618;25.342;2023-02-28T08:45:52;101192.81;;;5.67;100.00
7333;BME280;3707;43.618;25.342;2023-02-28T08:48:19;101202.13;;;5.48;100.00
7333;BME280;3707;43.618;25.342;2023-02-28T08:50:55;101176.22;;;5.29;100.00
7333;BME280;3707;43.618;25.342;2023-02-28T08:53:22;101199.31;;;5.28;100.00
7333;BME280;3707;43.618;25.342;2023-02-28T08:55:55;101189.19;;;5.31;100.00
7333;BME280;3707;43.618;25.342;2023-02-28T08:58:22;101202.44;;;5.38;100.00
7333;BME280;3707;43.618;25.342;2023-02-28T09:00:51;101205.34;;;5.44;100.00
7333;BME280;3707;43.618;25.342;2023-02-28T09:03:18;101196.72;;;5.44;100.00
7333;BME280;3707;43.618;25.342;2023-02-28T09:05:52;101199.13;;;5.57;100.00
7333;BME280;3707;43.618;25.342;2023-02-28T09:08:19;101202.84;;;5.62;100.00
7333;BME280;3707;43.618;25.342;2023-02-28T09:10:45;101211.78;;;5.53;100.00
7333;BME280;3707;43.618;25.342;2023-02-28T09:13:12;101212.91;;;5.41;100.00
7333;BME280;3707;43.618;25.342;2023-02-28T09:15:39;101204.75;;;5.34;100.00
7333;BME280;3707;43.618;25.342;2023-02-28T09:18:07;101177.34;;;5.18;100.00
7333;BME280;3707;43.618;25.342;2023-02-28T09:20:37;101186.91;;;5.21;100.00
7333;BME280;3707;43.618;25.342;2023-02-28T09:23:04;101166.88;;;5.15;100.00
7333;BME280;3707;43.618;25.342;2023-02-28T09:25:31;101187.00;;;5.71;100.00
7333;BME280;3707;43.618;25.342;2023-02-28T09:27:58;101201.72;;;5.41;100.00
7333;BME280;3707;43.618;25.342;2023-02-28T09:30:24;101192.16;;;5.38;100.00
7333;BME280;3707;43.618;25.342;2023-02-28T09:32:51;101177.69;;;5.40;100.00
7333;BME280;3707;43.618;25.342;2023-02-28T09:35:21;101203.75;;;5.63;100.00
7333;BME280;3707;43.618;25.342;2023-02-28T09:37:49;101206.44;;;5.33;100.00
7333;BME280;3707;43.618;25.342;2023-02-28T09:40:17;101196.81;;;5.45;100.00
7333;BME280;3707;43.618;25.342;2023-02-28T09:42:46;101208.72;;;5.60;100.00
7333;BME280;3707;43.618;25.342;2023-02-28T09:45:23;101206.94;;;5.75;100.00
7333;BME280;3707;43.618;25.342;2023-02-28T09:47:52;101191.50;;;5.75;100.00
7333;BME280;3707;43.618;25.342;2023-02-28T09:50:30;101212.25;;;5.78;100.00
7333;BME280;3707;43.618;25.342;2023-02-28T09:52:58;101224.75;;;5.86;100.00
7333;BME280;3707;43.618;25.342;2023-02-28T09:55:30;101215.34;;;5.87;100.00
7333;BME280;3707;43.618;25.342;2023-02-28T09:57:58;101201.00;;;5.76;100.00
7333;BME280;3707;43.618;25.342;2023-02-28T10:00:31;101227.69;;;5.78;100.00
7333;BME280;3707;43.618;25.342;2023-02-28T10:03:19;101197.84;;;5.65;100.00
7333;BME280;3707;43.618;25.342;2023-02-28T10:05:54;101226.97;;;5.80;100.00
7333;BME280;3707;43.618;25.342;2023-02-28T10:08:27;101227.84;;;5.65;100.00
7333;BME280;3707;43.618;25.342;2023-02-28T10:10:58;101217.72;;;5.68;100.00
7333;BME280;3707;43.618;25.342;2023-02-28T10:13:32;101211.63;;;5.98;100.00
7333;BME280;3707;43.618;25.342;2023-02-28T10:16:04;101211.28;;;6.08;100.00
7333;BME280;3707;43.618;25.342;2023-02-28T10:18:39;101212.41;;;6.13;100.00
7333;BME280;3707;43.618;25.342;2023-02-28T10:21:17;101190.38;;;6.02;100.00
7333;BME280;3707;43.618;25.342;2023-02-28T10:23:45;101219.75;;;5.89;100.00
7333;BME280;3707;43.618;25.342;2023-02-28T10:26:16;101208.41;;;5.70;100.00
7333;BME280;3707;43.618;25.342;2023-02-28T10:28:43;101180.63;;;5.64;100.00
7333;BME280;3707;43.618;25.342;2023-02-28T10:31:14;101192.06;;;5.69;100.00
7333;BME280;3707;43.618;25.342;2023-02-28T10:33:44;101197.59;;;5.61;100.00
7333;BME280;3707;43.618;25.342;2023-02-28T10:36:15;101193.53;;;6.30;100.00
7333;BME280;3707;43.618;25.342;2023-02-28T10:38:44;101187.19;;;5.90;100.00
7333;BME280;3707;43.618;25.342;2023-02-28T10:41:12;101182.63;;;6.18;100.00
7333;BME280;3707;43.618;25.342;2023-02-28T10:43:41;101174.25;;;6.22;100.00
7333;BME280;3707;43.618;25.342;2023-02-28T10:46:14;101183.31;;;5.98;100.00
7333;BME280;3707;43.618;25.342;2023-02-28T10:49:01;101184.75;;;5.93;100.00
7333;BME280;3707;43.618;25.342;2023-02-28T10:51:36;101146.81;;;5.73;100.00
7333;BME280;3707;43.618;25.342;2023-02-28T10:54:04;101173.66;;;5.78;100.00
7333;BME280;3707;43.618;25.342;2023-02-28T10:56:32;101178.97;;;5.97;100.00
7333;BME280;3707;43.618;25.342;2023-02-28T10:59:00;101179.19;;;5.85;100.00
7333;BME280;3707;43.618;25.342;2023-02-28T11:01:36;101163.25;;;6.09;100.00
7333;BME280;3707;43.618;25.342;2023-02-28T11:04:16;101165.75;;;6.07;100.00
7333;BME280;3707;43.618;25.342;2023-02-28T11:06:45;101162.56;;;5.95;100.00
7333;BME280;3707;43.618;25.342;2023-02-28T11:09:20;101158.13;;;5.92;100.00
7333;BME280;3707;43.618;25.342;2023-02-28T11:11:50;101159.59;;;5.87;100.00
7333;BME280;3707;43.618;25.342;2023-02-28T11:14:21;101148.97;;;5.81;100.00
7333;BME280;3707;43.618;25.342;2023-02-28T11:16:49;101143.97;;;6.01;100.00
7333;BME280;3707;43.618;25.342;2023-02-28T11:19:20;101137.63;;;5.78;100.00
7333;BME280;3707;43.618;25.342;2023-02-28T11:21:53;101142.38;;;5.86;100.00
7333;BME280;3707;43.618;25.342;2023-02-28T11:24:25;101122.78;;;5.88;100.00
7333;BME280;3707;43.618;25.342;2023-02-28T11:26:53;101136.44;;;5.87;100.00
7333;BME280;3707;43.618;25.342;2023-02-28T11:29:22;101140.22;;;6.12;100.00
7333;BME280;3707;43.618;25.342;2023-02-28T11:32:13;101125.94;;;6.01;100.00
7333;BME280;3707;43.618;25.342;2023-02-28T11:34:43;101125.56;;;5.77;100.00
7333;BME280;3707;43.618;25.342;2023-02-28T11:37:14;101125.81;;;5.81;100.00
7333;BME280;3707;43.618;25.342;2023-02-28T11:39:41;101128.78;;;5.73;100.00
7333;BME280;3707;43.618;25.342;2023-02-28T11:45:20;101118.56;;;5.74;100.00
7333;BME280;3707;43.618;25.342;2023-02-28T11:47:56;101134.00;;;5.74;100.00
7333;BME280;3707;43.618;25.342;2023-02-28T11:50:42;101111.56;;;5.72;100.00
7333;BME280;3707;43.618;25.342;2023-02-28T11:53:19;101125.81;;;5.81;100.00
7333;BME280;3707;43.618;25.342;2023-02-28T11:55:52;101136.81;;;5.95;100.00
7333;BME280;3707;43.618;25.342;2023-02-28T11:58:29;101135.69;;;6.06;100.00
7333;BME280;3707;43.618;25.342;2023-02-28T12:01:15;101134.19;;;6.11;100.00
7333;BME280;3707;43.618;25.342;2023-02-28T12:03:53;101137.38;;;6.23;100.00
7333;BME280;3707;43.618;25.342;2023-02-28T12:06:25;101134.66;;;6.20;100.00
7333;BME280;3707;43.618;25.342;2023-02-28T12:09:20;101137.91;;;6.16;100.00
7333;BME280;3707;43.618;25.342;2023-02-28T12:11:56;101140.41;;;6.32;100.00
7333;BME280;3707;43.618;25.342;2023-02-28T12:14:49;101131.28;;;6.39;100.00
7333;BME280;3707;43.618;25.342;2023-02-28T12:17:31;101142.59;;;6.42;100.00
7333;BME280;3707;43.618;25.342;2023-02-28T12:20:11;101138.94;;;6.37;100.00
7333;BME280;3707;43.618;25.342;2023-02-28T12:22:49;101131.59;;;6.27;100.00
7333;BME280;3707;43.618;25.342;2023-02-28T12:25:30;101134.97;;;6.44;100.00
7333;BME280;3707;43.618;25.342;2023-02-28T12:28:08;101129.28;;;6.33;100.00
7333;BME280;3707;43.618;25.342;2023-02-28T12:30:39;101138.94;;;6.20;100.00
7333;BME280;3707;43.618;25.342;2023-02-28T12:33:09;101138.53;;;6.12;100.00
7333;BME280;3707;43.618;25.342;2023-02-28T12:35:43;101130.97;;;6.33;100.00
7333;BME280;3707;43.618;25.342;2023-02-28T12:38:17;101129.44;;;6.36;100.00
7333;BME280;3707;43.618;25.342;2023-02-28T12:40:50;101130.09;;;6.32;100.00
7333;BME280;3707;43.618;25.342;2023-02-28T12:43:20;101126.75;;;6.17;100.00
7333;BME280;3707;43.618;25.342;2023-02-28T12:45:51;101119.22;;;6.20;100.00
7333;BME280;3707;43.618;25.342;2023-02-28T12:48:24;101124.13;;;6.33;100.00
7333;BME280;3707;43.618;25.342;2023-02-28T12:50:52;101085.00;;;6.05;100.00
7333;BME280;3707;43.618;25.342;2023-02-28T12:53:23;101110.09;;;6.27;100.00
7333;BME280;3707;43.618;25.342;2023-02-28T12:56:08;101102.09;;;6.38;100.00
7333;BME280;3707;43.618;25.342;2023-02-28T12:58:39;101081.09;;;6.13;100.00
7333;BME280;3707;43.618;25.342;2023-02-28T13:01:29;101089.03;;;6.35;100.00
7333;BME280;3707;43.618;25.342;2023-02-28T13:07:13;101093.59;;;6.23;100.00
7333;BME280;3707;43.618;25.342;2023-02-28T13:09:52;101094.50;;;6.06;100.00
7333;BME280;3707;43.618;25.342;2023-02-28T13:12:21;101095.06;;;6.18;100.00
7333;BME280;3707;43.618;25.342;2023-02-28T13:14:49;101093.16;;;6.14;100.00
7333;BME280;3707;43.618;25.342;2023-02-28T13:17:19;101099.13;;;6.31;100.00
7333;BME280;3707;43.618;25.342;2023-02-28T13:19:56;101089.34;;;6.06;100.00
7333;BME280;3707;43.618;25.342;2023-02-28T13:22:37;101102.13;;;6.22;100.00
7333;BME280;3707;43.618;25.342;2023-02-28T13:34:39;101096.75;;;6.00;100.00
7333;BME280;3707;43.618;25.342;2023-02-28T13:37:35;101094.00;;;5.97;100.00
7333;BME280;3707;43.618;25.342;2023-02-28T13:40:29;101078.28;;;5.75;100.00
7333;BME280;3707;43.618;25.342;2023-02-28T13:43:03;101069.63;;;5.73;100.00
7333;BME280;3707;43.618;25.342;2023-02-28T13:45:30;101043.25;;;5.61;100.00